Arsenal, Utah
Current Conditions -  °F | °C
As of 2:33 PM on Thursday 18 Dec 2014 (Local Time) from KHIF Reporting Station
Broken Clouds Broken Clouds  
Wind Chill: 37°   Ceiling: 7500
Heat Index: 41°   Visibility: 10mi
Dew Point: 30°   Wind: 6mph
Humidity: 65%   Direction: 270°W
Pressure: 30.12"   Gusts: NA
Location:  41.123°N, 112.063°W
Report Text: KHIF 182133Z 27005KT 10SM FEW025 SCT034 BKN075 05/M01 A3012 RMK AO2A
Loading
Personal Weather Stations






























Interactive Weather Map New forecast layout! Learn more

10-Day Weather Forecast

Advertisements
Track Severe Weather on mobile